createdAt,value
2023-02-16T00:00:25.154Z,9.73
2023-02-16T00:03:17.455Z,10.00
2023-02-16T00:05:47.684Z,10.19
2023-02-16T00:08:17.072Z,10.45
2023-02-16T00:11:08.322Z,9.74
2023-02-16T00:13:45.450Z,9.65
2023-02-16T00:16:18.388Z,9.50
2023-02-16T00:18:48.385Z,10.16
2023-02-16T00:21:18.809Z,9.85
2023-02-16T00:23:48.881Z,9.56
2023-02-16T00:26:20.496Z,9.88
2023-02-16T00:28:52.333Z,9.52
2023-02-16T00:31:27.502Z,9.34
2023-02-16T00:33:57.811Z,9.22
2023-02-16T00:36:27.695Z,9.92
2023-02-16T00:38:57.018Z,9.62
2023-02-16T00:41:44.823Z,9.03
2023-02-16T00:44:18.556Z,9.29
2023-02-16T00:46:49.866Z,9.16
2023-02-16T00:49:20.971Z,9.88
2023-02-16T00:51:51.318Z,9.64
2023-02-16T00:54:21.182Z,9.78
2023-02-16T00:56:51.161Z,10.00
2023-02-16T00:59:23.664Z,10.33
2023-02-16T01:01:54.722Z,10.20
2023-02-16T01:04:25.729Z,10.51
2023-02-16T01:07:12.672Z,10.04
2023-02-16T01:09:59.454Z,9.42
2023-02-16T01:12:30.901Z,9.38
2023-02-16T01:15:00.826Z,8.80
2023-02-16T01:17:34.362Z,8.56
2023-02-16T01:20:04.121Z,9.20
2023-02-16T01:22:36.673Z,9.56
2023-02-16T01:25:06.218Z,9.36
2023-02-16T01:27:37.858Z,9.24
2023-02-16T01:30:12.533Z,9.33
2023-02-16T01:32:43.656Z,9.46
2023-02-16T01:35:13.070Z,9.35
2023-02-16T01:37:42.803Z,9.73
2023-02-16T01:40:24.778Z,9.42
2023-02-16T01:43:02.828Z,8.90
2023-02-16T01:45:36.163Z,8.88
2023-02-16T01:48:12.702Z,9.41
2023-02-16T01:50:49.972Z,9.02
2023-02-16T01:53:28.176Z,9.29
2023-02-16T01:56:03.038Z,9.37
2023-02-16T01:58:38.641Z,9.26
2023-02-16T02:01:43.270Z,8.69
2023-02-16T02:04:48.168Z,8.65
2023-02-16T02:07:26.122Z,9.28
2023-02-16T02:10:03.225Z,9.01
2023-02-16T02:12:41.023Z,8.66
2023-02-16T02:15:12.603Z,9.21
2023-02-16T02:17:41.899Z,9.50
2023-02-16T02:20:21.122Z,9.74
2023-02-16T02:23:34.167Z,10.05
2023-02-16T02:26:44.920Z,10.49
2023-02-16T02:29:43.488Z,10.57
2023-02-16T02:32:24.317Z,10.07
2023-02-16T02:35:04.932Z,9.84
2023-02-16T02:37:46.766Z,9.54
2023-02-16T02:40:28.212Z,9.46
2023-02-16T02:43:06.080Z,9.38
2023-02-16T02:45:43.231Z,9.83
2023-02-16T02:48:12.851Z,9.73
2023-02-16T02:51:07.642Z,9.44
2023-02-16T02:53:41.116Z,9.46
2023-02-16T02:56:31.280Z,9.56
2023-02-16T02:59:23.245Z,9.48
2023-02-16T03:01:59.388Z,9.55
2023-02-16T03:04:31.956Z,9.99
2023-02-16T03:07:04.447Z,9.84
2023-02-16T03:09:33.975Z,9.49
2023-02-16T03:12:22.788Z,9.69
2023-02-16T03:14:55.844Z,9.37
2023-02-16T03:17:51.312Z,9.41
2023-02-16T03:20:39.008Z,8.63
2023-02-16T03:23:27.110Z,8.60
2023-02-16T03:26:14.526Z,8.99
2023-02-16T03:29:03.475Z,8.96
2023-02-16T03:36:41.040Z,9.56
2023-02-16T03:39:10.852Z,9.85
2023-02-16T03:41:43.465Z,9.31
2023-02-16T03:44:13.090Z,9.23
2023-02-16T03:46:43.311Z,9.13
2023-02-16T03:49:12.793Z,9.18
2023-02-16T03:51:43.683Z,8.60
2023-02-16T03:54:13.470Z,8.72
2023-02-16T03:56:43.011Z,9.67
2023-02-16T03:59:12.163Z,9.05
2023-02-16T04:01:41.735Z,8.73
2023-02-16T04:04:11.096Z,8.73
2023-02-16T04:06:42.743Z,8.53
2023-02-16T04:09:12.150Z,9.20
2023-02-16T04:11:59.247Z,9.33
2023-02-16T04:14:28.616Z,8.86
2023-02-16T04:16:58.112Z,9.32
2023-02-16T04:19:27.329Z,8.61
2023-02-16T04:21:58.350Z,9.23
2023-02-16T04:24:27.564Z,9.67
2023-02-16T04:26:57.172Z,9.48
2023-02-16T04:29:26.573Z,9.55
2023-02-16T04:31:56.162Z,10.20
2023-02-16T04:34:25.416Z,9.96
2023-02-16T04:36:54.908Z,9.81
2023-02-16T04:39:25.557Z,10.33
2023-02-16T04:41:55.042Z,10.58
2023-02-16T04:44:24.309Z,10.29
2023-02-16T04:46:53.832Z,9.73
2023-02-16T04:49:23.220Z,9.74
2023-02-16T04:51:52.693Z,10.00
2023-02-16T04:54:21.920Z,9.94
2023-02-16T04:56:52.838Z,10.17
2023-02-16T04:59:22.048Z,10.08
2023-02-16T05:01:51.714Z,10.77
2023-02-16T05:04:21.049Z,10.88
2023-02-16T05:06:50.498Z,10.30
2023-02-16T05:09:20.199Z,10.49
2023-02-16T05:12:08.359Z,10.66
2023-02-16T05:14:45.182Z,9.89
2023-02-16T05:17:17.724Z,10.26
2023-02-16T05:19:49.298Z,9.37
2023-02-16T05:22:19.044Z,9.68
2023-02-16T05:24:48.671Z,9.36
2023-02-16T05:27:21.619Z,9.84
2023-02-16T05:29:51.262Z,10.36
2023-02-16T05:32:21.184Z,9.89
2023-02-16T05:34:50.416Z,9.48
2023-02-16T05:37:20.516Z,9.83
2023-02-16T05:39:49.935Z,10.34
2023-02-16T05:42:20.769Z,9.55
2023-02-16T05:44:49.959Z,9.39
2023-02-16T05:47:19.424Z,9.10
2023-02-16T05:49:48.824Z,8.94
2023-02-16T05:52:18.377Z,9.07
2023-02-16T05:54:47.625Z,9.48
2023-02-16T05:57:17.103Z,9.20
2023-02-16T05:59:47.864Z,10.04
2023-02-16T06:02:17.510Z,9.13
2023-02-16T06:04:46.672Z,9.29
2023-02-16T06:07:16.144Z,9.04
2023-02-16T06:09:45.362Z,9.98
2023-02-16T06:12:14.873Z,9.34
2023-02-16T06:14:44.294Z,9.55
2023-02-16T06:17:15.419Z,9.53
2023-02-16T06:19:44.639Z,9.91
2023-02-16T06:22:14.152Z,9.41
2023-02-16T06:24:43.526Z,9.99
2023-02-16T06:27:13.029Z,9.88
2023-02-16T06:29:42.440Z,9.81
2023-02-16T06:32:12.129Z,9.57
2023-02-16T06:34:42.707Z,10.20
2023-02-16T06:37:12.364Z,10.31
2023-02-16T06:39:41.575Z,10.31
2023-02-16T06:42:11.180Z,10.09
2023-02-16T06:44:44.334Z,10.28
2023-02-16T06:47:14.003Z,9.85
2023-02-16T06:49:44.509Z,9.69
2023-02-16T06:52:14.129Z,9.68
2023-02-16T06:54:43.312Z,9.91
2023-02-16T06:57:12.799Z,10.37
2023-02-16T06:59:42.514Z,10.75
2023-02-16T07:02:12.485Z,11.20
2023-02-16T07:04:43.075Z,11.15
2023-02-16T07:07:12.571Z,10.10
2023-02-16T07:09:41.776Z,10.30
2023-02-16T07:12:11.363Z,10.14
2023-02-16T07:14:41.624Z,10.48
2023-02-16T07:17:12.616Z,9.96
2023-02-16T07:19:43.237Z,9.51
2023-02-16T07:22:12.798Z,10.06
2023-02-16T07:24:42.051Z,9.57
2023-02-16T07:27:11.691Z,10.04
2023-02-16T07:29:41.121Z,9.41
2023-02-16T07:32:10.706Z,9.58
2023-02-16T07:34:40.036Z,9.80
2023-02-16T07:37:10.918Z,10.00
2023-02-16T07:39:40.175Z,9.29
2023-02-16T07:42:09.676Z,9.79
2023-02-16T07:44:38.958Z,9.16
2023-02-16T07:47:08.520Z,10.33
2023-02-16T07:49:37.664Z,9.20
2023-02-16T07:52:07.690Z,10.16
2023-02-16T07:54:38.342Z,9.70
2023-02-16T07:57:08.407Z,9.81
2023-02-16T07:59:37.625Z,10.31
2023-02-16T08:02:07.550Z,9.42
2023-02-16T08:04:37.101Z,9.51
2023-02-16T08:07:06.556Z,9.99
2023-02-16T08:09:37.120Z,9.85
2023-02-16T08:12:09.088Z,8.47
2023-02-16T08:14:38.426Z,9.42
2023-02-16T08:17:08.891Z,10.16
2023-02-16T08:19:38.249Z,10.15
2023-02-16T08:22:09.153Z,10.08
2023-02-16T08:24:40.049Z,9.24
2023-02-16T08:27:09.559Z,9.61
2023-02-16T08:29:38.800Z,10.47
2023-02-16T08:32:08.970Z,10.72
2023-02-16T08:34:41.535Z,10.95
2023-02-16T08:37:14.439Z,11.19
2023-02-16T08:39:45.693Z,10.81
2023-02-16T08:42:15.235Z,10.84
2023-02-16T08:44:44.749Z,10.92
2023-02-16T08:47:16.940Z,11.45
2023-02-16T08:49:46.244Z,11.49
2023-02-16T08:52:15.828Z,12.22
2023-02-16T08:54:46.430Z,12.26
2023-02-16T08:57:16.080Z,11.94
2023-02-16T08:59:45.261Z,11.63
2023-02-16T09:02:14.808Z,11.80
2023-02-16T09:04:44.100Z,12.55
2023-02-16T09:07:14.066Z,11.86
2023-02-16T09:09:44.570Z,11.24
2023-02-16T09:12:15.782Z,11.96
2023-02-16T09:14:44.986Z,11.72
2023-02-16T09:17:14.525Z,11.78
2023-02-16T09:19:44.695Z,12.54
2023-02-16T09:22:14.404Z,12.87
2023-02-16T09:24:43.846Z,13.46
2023-02-16T09:27:15.052Z,13.45
2023-02-16T09:29:44.683Z,12.38
2023-02-16T09:32:15.498Z,13.57
2023-02-16T09:34:46.340Z,13.66
2023-02-16T09:37:15.953Z,13.66
2023-02-16T09:39:45.123Z,13.97
2023-02-16T09:42:30.577Z,13.77
2023-02-16T09:45:07.512Z,13.89
2023-02-16T09:47:40.916Z,14.06
2023-02-16T09:50:38.341Z,14.80
2023-02-16T09:53:16.418Z,14.77
2023-02-16T09:55:54.548Z,15.89
2023-02-16T09:58:31.565Z,15.22
2023-02-16T10:01:08.599Z,13.54
2023-02-16T10:03:51.581Z,13.84
2023-02-16T10:06:35.090Z,13.51
2023-02-16T10:09:08.999Z,14.10
2023-02-16T10:11:46.773Z,13.83
2023-02-16T10:14:31.797Z,14.92
2023-02-16T10:17:12.446Z,14.04
2023-02-16T10:19:48.022Z,14.71
2023-02-16T10:22:22.563Z,16.31
2023-02-16T10:25:00.511Z,15.63
2023-02-16T10:27:38.351Z,14.82
2023-02-16T10:30:18.096Z,16.19
2023-02-16T10:32:57.681Z,16.25
2023-02-16T10:35:38.187Z,16.61
2023-02-16T10:38:13.752Z,17.57
2023-02-16T10:40:55.081Z,16.83
2023-02-16T10:43:38.864Z,18.21
2023-02-16T10:46:17.053Z,17.53
2023-02-16T10:48:47.699Z,17.07
2023-02-16T10:51:20.582Z,17.07
2023-02-16T10:53:54.691Z,17.66
2023-02-16T10:56:42.696Z,18.28
2023-02-16T10:59:17.765Z,17.67
2023-02-16T11:01:52.107Z,18.21
2023-02-16T11:04:39.929Z,18.79
2023-02-16T11:07:12.221Z,19.91
2023-02-16T11:09:43.192Z,19.38
2023-02-16T11:12:19.374Z,19.49
2023-02-16T11:14:53.686Z,19.12
2023-02-16T11:17:26.273Z,21.03
2023-02-16T11:20:01.636Z,18.89
2023-02-16T11:22:35.005Z,19.98
2023-02-16T11:25:25.710Z,20.98
2023-02-16T11:27:57.307Z,22.77
2023-02-16T11:30:35.279Z,23.47
2023-02-16T11:33:21.912Z,21.46
2023-02-16T11:35:51.351Z,21.79
2023-02-16T11:38:32.997Z,20.72
2023-02-16T11:41:04.621Z,20.49
2023-02-16T11:43:38.882Z,20.60
2023-02-16T11:46:16.856Z,20.83
2023-02-16T11:48:48.464Z,22.97
2023-02-16T11:51:30.664Z,28.10
2023-02-16T11:54:03.946Z,29.51
2023-02-16T11:56:35.315Z,30.68
2023-02-16T11:59:08.517Z,31.27
2023-02-16T12:02:29.317Z,31.23
2023-02-16T12:05:17.015Z,28.55
2023-02-16T12:07:58.342Z,29.55
2023-02-16T12:10:38.745Z,25.02
2023-02-16T12:13:19.486Z,24.97
2023-02-16T12:15:55.981Z,24.08
2023-02-16T12:18:37.825Z,24.69
2023-02-16T12:21:19.403Z,28.85
2023-02-16T12:24:03.228Z,26.92
2023-02-16T12:26:41.633Z,27.57
2023-02-16T12:29:31.522Z,24.53
2023-02-16T12:32:16.054Z,21.83
2023-02-16T12:34:59.794Z,23.62
2023-02-16T12:37:38.190Z,24.64
2023-02-16T12:40:18.340Z,25.04
2023-02-16T12:43:04.191Z,26.24
2023-02-16T12:45:37.526Z,23.21
2023-02-16T12:48:29.667Z,22.26
2023-02-16T12:51:00.251Z,25.01
2023-02-16T12:53:39.760Z,26.38
2023-02-16T12:56:13.840Z,25.58
2023-02-16T12:58:46.592Z,24.96
2023-02-16T13:01:21.857Z,26.81
2023-02-16T13:03:56.624Z,24.36
2023-02-16T13:06:32.875Z,22.52
2023-02-16T13:09:12.758Z,22.96
2023-02-16T13:11:49.619Z,21.57
2023-02-16T13:14:22.236Z,21.82
2023-02-16T13:16:56.095Z,22.90
2023-02-16T13:19:25.910Z,24.75
2023-02-16T13:22:23.029Z,24.76
2023-02-16T13:25:08.024Z,21.39
2023-02-16T13:27:48.006Z,21.09
2023-02-16T13:30:45.906Z,20.85
2023-02-16T13:33:37.089Z,21.90
2023-02-16T13:36:26.468Z,21.58
2023-02-16T13:39:43.564Z,21.99
2023-02-16T13:42:49.149Z,20.64
2023-02-16T13:45:22.329Z,20.56
2023-02-16T13:47:55.158Z,21.66
2023-02-16T13:50:31.261Z,21.58
2023-02-16T13:53:16.956Z,21.51
2023-02-16T13:55:46.354Z,22.18
2023-02-16T13:58:35.771Z,22.83
2023-02-16T14:01:38.744Z,22.20
2023-02-16T14:04:14.040Z,21.85
2023-02-16T14:06:43.925Z,21.09
2023-02-16T14:09:34.765Z,19.71
2023-02-16T14:12:15.556Z,20.26
2023-02-16T14:15:00.411Z,19.55
2023-02-16T14:17:33.594Z,19.39
2023-02-16T14:20:06.646Z,19.40
2023-02-16T14:22:42.547Z,19.38
2023-02-16T14:25:35.219Z,19.15
2023-02-16T14:28:07.032Z,18.39
2023-02-16T14:30:45.938Z,18.67
2023-02-16T14:33:24.503Z,18.74
2023-02-16T14:36:13.862Z,18.61
2023-02-16T14:38:47.226Z,18.14
2023-02-16T14:41:32.297Z,18.36
2023-02-16T14:44:27.928Z,18.81
2023-02-16T14:47:15.557Z,18.56
2023-02-16T14:50:09.365Z,17.97
2023-02-16T14:53:13.449Z,17.71
2023-02-16T14:56:16.834Z,17.27
2023-02-16T14:58:56.326Z,17.82
2023-02-16T15:01:27.484Z,17.94
2023-02-16T15:03:59.088Z,17.82
2023-02-16T15:06:33.902Z,18.09
2023-02-16T15:09:07.311Z,18.02
2023-02-16T15:12:00.410Z,18.04
2023-02-16T15:14:32.593Z,17.81
2023-02-16T15:17:01.962Z,17.24
2023-02-16T15:19:33.400Z,17.72
2023-02-16T15:22:18.971Z,17.48
2023-02-16T15:24:58.815Z,16.97
2023-02-16T15:27:29.446Z,16.78
2023-02-16T15:30:09.481Z,16.66
2023-02-16T15:32:39.243Z,16.51
2023-02-16T15:35:23.186Z,16.64
2023-02-16T15:38:02.408Z,16.40
2023-02-16T15:40:33.060Z,15.97
2023-02-16T15:43:13.346Z,16.02
2023-02-16T15:45:42.978Z,15.94
2023-02-16T15:48:17.390Z,15.71
2023-02-16T15:50:49.012Z,15.52
2023-02-16T15:53:26.139Z,15.04
2023-02-16T15:55:56.194Z,15.07
2023-02-16T15:58:25.656Z,14.42
2023-02-16T16:00:55.467Z,14.68
2023-02-16T16:03:24.924Z,14.87
2023-02-16T16:06:01.483Z,14.87
2023-02-16T16:08:32.078Z,14.65
2023-02-16T16:11:02.445Z,14.77
2023-02-16T16:13:33.110Z,14.15
2023-02-16T16:16:04.846Z,14.40
2023-02-16T16:18:43.336Z,14.72
2023-02-16T16:21:21.778Z,14.51
2023-02-16T16:24:03.609Z,14.58
2023-02-16T16:26:36.418Z,14.35
2023-02-16T16:29:25.998Z,14.40
2023-02-16T16:31:56.498Z,14.34
2023-02-16T16:34:39.164Z,14.11
2023-02-16T16:37:25.210Z,14.17
2023-02-16T16:40:04.451Z,14.09
2023-02-16T16:42:36.962Z,14.22
2023-02-16T16:45:20.484Z,14.00
2023-02-16T16:47:53.118Z,14.32
2023-02-16T16:50:34.708Z,14.28
2023-02-16T16:53:43.070Z,13.76
2023-02-16T16:56:14.007Z,13.39
2023-02-16T16:58:44.015Z,13.84
2023-02-16T17:01:15.985Z,14.22
2023-02-16T17:03:45.912Z,14.69
2023-02-16T17:06:15.453Z,14.91
2023-02-16T17:08:47.208Z,14.92
2023-02-16T17:11:25.030Z,14.81
2023-02-16T17:13:55.532Z,14.82
2023-02-16T17:16:28.395Z,14.79
2023-02-16T17:18:58.197Z,14.52
2023-02-16T17:21:27.484Z,14.55
2023-02-16T17:23:58.735Z,14.64
2023-02-16T17:26:28.617Z,14.58
2023-02-16T17:28:58.287Z,14.61
2023-02-16T17:31:27.720Z,14.75
2023-02-16T17:33:57.949Z,14.41
2023-02-16T17:36:28.570Z,14.28
2023-02-16T17:38:59.604Z,14.34
2023-02-16T17:41:30.950Z,14.19
2023-02-16T17:44:00.776Z,13.98
2023-02-16T17:46:31.781Z,14.09
2023-02-16T17:49:01.441Z,14.40
2023-02-16T17:51:32.271Z,14.51
2023-02-16T17:54:06.392Z,14.42
2023-02-16T17:56:37.407Z,14.35
2023-02-16T17:59:07.413Z,14.61
2023-02-16T18:01:37.788Z,14.78
2023-02-16T18:04:07.724Z,14.75
2023-02-16T18:06:37.426Z,14.81
2023-02-16T18:09:09.165Z,15.05
2023-02-16T18:11:38.769Z,15.09
2023-02-16T18:14:08.356Z,15.17
2023-02-16T18:16:37.586Z,15.27
2023-02-16T18:19:09.053Z,15.20
2023-02-16T18:21:38.896Z,15.12
2023-02-16T18:24:09.977Z,15.08
2023-02-16T18:26:39.565Z,15.15
2023-02-16T18:29:11.089Z,15.13
2023-02-16T18:31:41.184Z,15.08
2023-02-16T18:34:11.836Z,15.07
2023-02-16T18:36:41.496Z,15.05
2023-02-16T18:39:12.812Z,15.08
2023-02-16T18:41:42.228Z,14.89
2023-02-16T18:44:12.136Z,14.80
2023-02-16T18:46:41.524Z,14.96
2023-02-16T18:49:11.174Z,14.86
2023-02-16T18:51:41.284Z,14.86
2023-02-16T18:54:12.354Z,14.82
2023-02-16T18:56:42.429Z,14.59
2023-02-16T18:59:12.362Z,14.45
2023-02-16T19:01:42.207Z,14.38
2023-02-16T19:04:12.355Z,14.38
2023-02-16T19:06:43.082Z,14.42
2023-02-16T19:09:14.458Z,14.52
2023-02-16T19:11:44.073Z,14.50
2023-02-16T19:14:13.827Z,14.29
2023-02-16T19:16:43.512Z,14.19
2023-02-16T19:19:13.409Z,14.43
2023-02-16T19:21:44.757Z,14.42
2023-02-16T19:24:15.890Z,14.55
2023-02-16T19:26:45.262Z,14.74
2023-02-16T19:29:15.521Z,14.37
2023-02-16T19:31:45.265Z,14.42
2023-02-16T19:34:15.091Z,14.31
2023-02-16T19:36:46.569Z,14.58
2023-02-16T19:39:18.193Z,14.35
2023-02-16T19:41:47.992Z,14.22
2023-02-16T19:44:17.968Z,14.41
2023-02-16T19:46:47.384Z,14.91
2023-02-16T19:49:17.542Z,14.49
2023-02-16T19:51:47.820Z,14.76
2023-02-16T19:54:18.668Z,14.79
2023-02-16T19:56:48.025Z,14.86
2023-02-16T19:59:17.954Z,14.19
2023-02-16T20:01:47.489Z,14.66
2023-02-16T20:04:17.170Z,14.07
2023-02-16T20:06:47.413Z,13.89
2023-02-16T20:09:18.864Z,14.13
2023-02-16T20:11:49.852Z,14.34
2023-02-16T20:14:20.019Z,14.80
2023-02-16T20:16:50.420Z,14.25
2023-02-16T20:19:20.375Z,13.77
2023-02-16T20:21:49.864Z,14.07
2023-02-16T20:24:23.585Z,14.57
2023-02-16T20:26:52.890Z,14.28
2023-02-16T20:29:22.987Z,14.38
2023-02-16T20:31:55.567Z,15.02
2023-02-16T20:34:27.662Z,14.41
2023-02-16T20:36:57.336Z,14.45
2023-02-16T20:39:28.740Z,14.28
2023-02-16T20:41:59.394Z,14.87
2023-02-16T20:44:29.117Z,14.78
2023-02-16T20:47:00.451Z,14.55
2023-02-16T20:49:30.224Z,14.96
2023-02-16T20:51:59.604Z,14.50
2023-02-16T20:54:31.256Z,15.36
2023-02-16T20:57:00.526Z,14.60
2023-02-16T20:59:30.598Z,14.89
2023-02-16T21:02:00.281Z,15.19
2023-02-16T21:04:30.364Z,15.37
2023-02-16T21:06:59.594Z,14.77
2023-02-16T21:09:30.882Z,15.37
2023-02-16T21:12:00.195Z,15.21
2023-02-16T21:14:29.760Z,15.39
2023-02-16T21:16:59.032Z,15.19
2023-02-16T21:19:28.697Z,15.13
2023-02-16T21:21:58.251Z,14.92
2023-02-16T21:24:29.180Z,14.70
2023-02-16T21:26:58.590Z,14.86
2023-02-16T21:29:28.277Z,14.65
2023-02-16T21:31:57.515Z,14.58
2023-02-16T21:34:27.227Z,14.95
2023-02-16T21:36:56.518Z,14.95
2023-02-16T21:39:46.190Z,15.14
2023-02-16T21:42:15.798Z,15.05
2023-02-16T21:44:49.998Z,14.82
2023-02-16T21:47:37.281Z,14.74
2023-02-16T21:50:07.496Z,15.16
2023-02-16T21:52:36.847Z,14.96
2023-02-16T21:55:24.762Z,14.64
2023-02-16T21:57:58.814Z,14.36
2023-02-16T22:00:28.833Z,14.49
2023-02-16T22:02:58.672Z,14.40
2023-02-16T22:05:28.278Z,14.66
2023-02-16T22:07:58.802Z,14.92
2023-02-16T22:10:28.912Z,15.22
2023-02-16T22:13:00.055Z,14.61
2023-02-16T22:15:29.934Z,14.81
2023-02-16T22:17:59.351Z,14.27
2023-02-16T22:20:28.905Z,14.55
2023-02-16T22:22:58.348Z,14.65
2023-02-16T22:25:27.795Z,13.88
2023-02-16T22:27:58.484Z,13.95
2023-02-16T22:30:27.993Z,14.94
2023-02-16T22:32:57.300Z,14.71
2023-02-16T22:35:26.810Z,15.04
2023-02-16T22:37:56.102Z,14.25
2023-02-16T22:40:25.816Z,14.19
2023-02-16T22:42:55.069Z,13.91
2023-02-16T22:45:26.085Z,15.05
2023-02-16T22:47:55.250Z,14.30
2023-02-16T22:50:24.963Z,14.36
2023-02-16T22:52:55.026Z,14.81
2023-02-16T22:55:24.985Z,15.09
2023-02-16T22:57:54.542Z,14.87
2023-02-16T23:00:25.546Z,14.44
2023-02-16T23:02:54.911Z,14.38
2023-02-16T23:05:24.549Z,14.18
2023-02-16T23:07:53.789Z,14.70
2023-02-16T23:10:23.323Z,13.96
2023-02-16T23:12:52.510Z,13.99
2023-02-16T23:15:23.093Z,14.23
2023-02-16T23:17:53.752Z,13.97
2023-02-16T23:20:23.544Z,14.39
2023-02-16T23:22:52.938Z,14.59
2023-02-16T23:25:34.529Z,14.56
2023-02-16T23:28:06.064Z,14.11
2023-02-16T23:30:35.655Z,14.08
2023-02-16T23:33:06.300Z,13.73
2023-02-16T23:35:35.915Z,14.17
2023-02-16T23:38:05.331Z,14.58
2023-02-16T23:40:34.942Z,14.59
2023-02-16T23:43:04.198Z,13.97
2023-02-16T23:45:33.820Z,13.74
2023-02-16T23:48:03.270Z,14.07
2023-02-16T23:50:34.162Z,14.19
2023-02-16T23:53:03.681Z,14.49
2023-02-16T23:55:33.281Z,14.07
2023-02-16T23:58:02.565Z,14.08
